Time;durP1;ratioP1;P1;durP2;ratioP2;P2;SDS_P1;SDS_P2;PMS_P1;PMS_P2;Temp;Humidity;BMP_temperature;BMP_pressure;BME280_temperature;BME280_humidity;BME280_pressure;Samples;Min_cycle;Max_cycle;Signal;HPM_P1;HPM_P2
2021/04/19 00:03:19;;;;;;;11.37;10.27;;;13.50;92.40;;;;;;4963608;28;20559;-81
2021/04/19 00:06:45;;;;;;;12.43;10.33;;;13.40;92.70;;;;;;4939437;28;20465;-81
2021/04/19 00:09:44;;;;;;;13.67;10.93;;;13.60;93.20;;;;;;4952370;28;20440;-77
2021/04/19 00:12:11;;;;;;;15.10;11.97;;;13.80;92.90;;;;;;4961736;28;20455;-83
2021/04/19 00:15:15;;;;;;;13.10;11.57;;;13.70;92.80;;;;;;4971376;28;20434;-80
2021/04/19 00:17:53;;;;;;;14.90;11.67;;;13.70;92.90;;;;;;4969585;28;20448;-80
2021/04/19 00:21:06;;;;;;;14.23;11.17;;;13.50;93.10;;;;;;4961943;28;20467;-81
2021/04/19 00:23:53;;;;;;;15.67;11.00;;;13.50;93.30;;;;;;4979862;28;20475;-79
2021/04/19 00:26:30;;;;;;;12.60;11.33;;;13.40;93.80;;;;;;4970947;28;20495;-82
2021/04/19 00:29:05;;;;;;;15.47;13.20;;;13.60;93.90;;;;;;4972264;28;20530;-80
2021/04/19 00:32:01;;;;;;;13.03;11.47;;;13.80;93.50;;;;;;4980421;28;20507;-80
2021/04/19 00:35:17;;;;;;;15.57;13.87;;;13.90;93.30;;;;;;4976112;28;20840;-79
2021/04/19 00:37:56;;;;;;;14.33;12.90;;;13.80;94.10;;;;;;4978501;28;20478;-81
2021/04/19 00:40:53;;;;;;;13.33;12.00;;;13.70;94.20;;;;;;4982496;28;20466;-81
2021/04/19 00:43:36;;;;;;;16.00;13.57;;;13.50;94.80;;;;;;4975167;28;20472;-79
2021/04/19 00:46:19;;;;;;;14.60;13.30;;;13.30;95.90;;;;;;4978520;28;20484;-79
2021/04/19 00:49:06;;;;;;;15.73;13.00;;;13.10;96.00;;;;;;4960952;28;20487;-79
2021/04/19 00:51:52;;;;;;;14.70;13.00;;;13.00;96.50;;;;;;4975154;28;20479;-80
2021/04/19 00:54:26;;;;;;;14.40;12.90;;;12.80;96.80;;;;;;4977893;28;21318;-80
2021/04/19 00:57:21;;;;;;;13.37;11.97;;;12.80;97.30;;;;;;4981320;28;20428;-79
2021/04/19 01:00:29;;;;;;;11.97;10.77;;;12.70;97.40;;;;;;4978757;28;20964;-78
2021/04/19 01:03:14;;;;;;;11.50;10.07;;;12.70;97.60;;;;;;4972198;28;20448;-80
2021/04/19 01:05:57;;;;;;;11.90;9.97;;;12.60;97.60;;;;;;4975371;28;20479;-79
2021/04/19 01:08:39;;;;;;;11.70;9.80;;;12.50;97.90;;;;;;4980455;28;20486;-80
2021/04/19 01:11:30;;;;;;;10.17;9.13;;;12.50;98.10;;;;;;4922283;29;20475;-78
2021/04/19 01:14:14;;;;;;;13.00;9.87;;;12.50;98.30;;;;;;4909420;29;20501;-80
2021/04/19 01:17:00;;;;;;;12.93;10.10;;;12.50;98.30;;;;;;4933995;29;20477;-80
2021/04/19 01:22:52;;;;;;;11.73;9.30;;;12.40;98.30;;;;;;4900330;29;20716;-82
2021/04/19 01:25:58;;;;;;;11.57;8.90;;;12.40;98.40;;;;;;4911353;29;20496;-81
2021/04/19 01:29:03;;;;;;;10.77;9.40;;;12.30;98.40;;;;;;4920500;29;20454;-81
2021/04/19 01:31:51;;;;;;;10.10;8.50;;;12.30;98.50;;;;;;4924576;29;20450;-82
2021/04/19 01:34:56;;;;;;;;;;;;;;;;;;;;;
2021/04/19 01:37:49;;;;;;;;;;;;;;;;;;;;;
2021/04/19 01:40:43;;;;;;;9.70;8.80;;;12.20;98.30;;;;;;4921959;29;20453;-79
2021/04/19 01:43:27;;;;;;;9.63;8.47;;;12.10;98.30;;;;;;4961551;28;20448;-81
2021/04/19 01:46:39;;;;;;;9.70;8.70;;;12.10;98.20;;;;;;4966639;28;20460;-81
2021/04/19 01:49:23;;;;;;;9.60;7.80;;;12.00;98.20;;;;;;4969836;28;20471;-80
2021/04/19 01:52:03;;;;;;;10.50;8.03;;;12.00;98.40;;;;;;4974655;28;20471;-82
2021/04/19 01:54:37;;;;;;;11.30;8.40;;;12.00;98.30;;;;;;4973942;28;20495;-78
2021/04/19 01:57:25;;;;;;;8.40;7.57;;;12.00;98.20;;;;;;4937293;29;20441;-80
2021/04/19 02:00:03;;;;;;;8.50;7.70;;;12.00;97.90;;;;;;4933779;29;20468;-81
2021/04/19 02:03:08;;;;;;;8.87;7.97;;;12.00;98.00;;;;;;4931248;29;20452;-80
2021/04/19 02:06:14;;;;;;;8.60;7.70;;;11.90;98.00;;;;;;4947402;28;20576;-78
2021/04/19 02:09:15;;;;;;;9.90;7.67;;;11.80;98.00;;;;;;4955504;28;20475;-81
2021/04/19 02:12:10;;;;;;;9.90;8.90;;;11.80;98.10;;;;;;4959885;28;20441;-80
2021/04/19 02:15:14;;;;;;;9.67;8.47;;;11.90;98.10;;;;;;4952598;28;20548;-81
2021/04/19 02:18:13;;;;;;;12.20;8.00;;;11.90;97.90;;;;;;4929121;29;20526;-78
2021/04/19 02:21:05;;;;;;;13.43;7.90;;;11.90;97.80;;;;;;4918696;28;21054;-78
2021/04/19 02:24:16;;;;;;;9.33;7.77;;;11.90;97.70;;;;;;4932300;29;20474;-78
2021/04/19 02:26:58;;;;;;;9.83;7.87;;;11.90;97.60;;;;;;4933567;29;20536;-79
2021/04/19 02:29:50;;;;;;;8.70;7.77;;;11.90;97.50;;;;;;4936951;29;20480;-81
2021/04/19 02:32:38;;;;;;;9.60;7.33;;;11.80;97.40;;;;;;4953198;29;20463;-79
2021/04/19 02:35:22;;;;;;;11.00;7.60;;;11.70;97.50;;;;;;4973796;28;20498;-79
2021/04/19 02:37:56;;;;;;;7.37;6.67;;;11.80;97.60;;;;;;4986390;28;20439;-80
2021/04/19 02:40:45;;;;;;;9.30;7.77;;;11.70;97.60;;;;;;4982050;28;20452;-78
2021/04/19 02:43:24;;;;;;;10.00;7.40;;;11.70;97.70;;;;;;4976106;28;20483;-80
2021/04/19 02:45:56;;;;;;;13.50;7.83;;;11.70;97.60;;;;;;4966472;28;21004;-81
2021/04/19 02:48:42;;;;;;;8.63;7.90;;;11.70;97.60;;;;;;4963150;28;20444;-81
2021/04/19 02:51:19;;;;;;;8.37;7.50;;;11.70;97.60;;;;;;4965273;28;20499;-83
2021/04/19 02:54:34;;;;;;;9.50;8.03;;;11.70;97.60;;;;;;4968756;28;21104;-81
2021/04/19 02:57:25;;;;;;;12.53;8.23;;;11.70;97.60;;;;;;4972137;28;20483;-80
2021/04/19 03:00:07;;;;;;;9.47;7.13;;;11.70;97.40;;;;;;4982674;28;20475;-79
2021/04/19 03:02:50;;;;;;;9.70;7.47;;;11.60;97.10;;;;;;4983169;28;20460;-79
2021/04/19 03:06:01;;;;;;;8.37;7.03;;;11.70;97.20;;;;;;4978959;28;20491;-80
2021/04/19 03:08:31;;;;;;;9.57;7.17;;;11.70;97.00;;;;;;4982381;28;20474;-80
2021/04/19 03:11:46;;;;;;;11.10;7.50;;;11.80;97.00;;;;;;4985335;28;20501;-79
2021/04/19 03:14:36;;;;;;;10.43;8.53;;;11.80;96.90;;;;;;4956998;28;20530;-80
2021/04/19 03:17:29;;;;;;;10.40;7.63;;;11.70;97.00;;;;;;4983286;28;20452;-80
2021/04/19 03:20:34;;;;;;;8.90;7.23;;;11.70;97.10;;;;;;4984771;28;20444;-80
2021/04/19 03:23:02;;;;;;;7.17;6.47;;;11.70;97.10;;;;;;4986684;28;20452;-80
2021/04/19 03:25:57;;;;;;;;;;;;;;;;;;;;;
2021/04/19 03:28:38;;;;;;;11.00;8.10;;;11.60;97.10;;;;;;4967670;28;20468;-83
2021/04/19 03:31:14;;;;;;;8.90;7.30;;;11.60;97.20;;;;;;4967071;28;20471;-82
2021/04/19 03:33:53;;;;;;;9.13;7.07;;;11.60;97.10;;;;;;4969350;28;20462;-82
2021/04/19 03:36:28;;;;;;;8.87;7.63;;;11.70;97.00;;;;;;4970755;28;22332;-83
2021/04/19 03:39:04;;;;;;;10.30;6.90;;;11.70;97.10;;;;;;4966550;28;20458;-82
2021/04/19 03:41:50;;;;;;;7.90;7.03;;;11.60;97.10;;;;;;4964285;28;20518;-82
2021/04/19 03:44:44;;;;;;;7.63;6.93;;;11.60;97.20;;;;;;4962522;28;20819;-83
2021/04/19 03:47:25;;;;;;;9.40;7.13;;;11.60;97.20;;;;;;4964898;28;20492;-82
2021/04/19 03:50:09;;;;;;;8.30;7.50;;;11.60;97.40;;;;;;4963432;28;20518;-79
2021/04/19 03:52:50;;;;;;;8.13;7.43;;;11.60;97.40;;;;;;4964386;28;20448;-81
2021/04/19 03:55:25;;;;;;;8.43;7.53;;;11.50;97.40;;;;;;4962558;28;20529;-84
2021/04/19 03:58:12;;;;;;;10.27;6.90;;;11.60;97.60;;;;;;4962841;28;20455;-83
2021/04/19 04:00:46;;;;;;;7.70;6.97;;;11.50;97.60;;;;;;4965357;28;21011;-81
2021/04/19 04:03:35;;;;;;;9.83;7.33;;;11.50;97.70;;;;;;4965063;28;20491;-80
2021/04/19 04:06:23;;;;;;;9.50;7.80;;;11.50;97.60;;;;;;4976800;28;20483;-81
2021/04/19 04:09:30;;;;;;;8.47;7.63;;;11.40;97.50;;;;;;4977338;28;20415;-80
2021/04/19 04:12:38;;;;;;;8.70;7.10;;;11.30;97.30;;;;;;4963164;28;20511;-80
2021/04/19 04:15:19;;;;;;;8.87;6.67;;;11.20;97.40;;;;;;4965608;28;20510;-80
2021/04/19 04:18:07;;;;;;;8.83;7.90;;;11.30;97.80;;;;;;4966656;28;20476;-82
2021/04/19 04:21:08;;;;;;;11.00;8.00;;;11.30;98.50;;;;;;4905992;29;20470;-80
2021/04/19 04:24:09;;;;;;;7.87;7.07;;;11.30;99.10;;;;;;4905036;29;20470;-81
2021/04/19 04:26:58;;;;;;;9.10;7.70;;;11.30;99.80;;;;;;4906953;29;20575;-80
2021/04/19 04:32:40;;;;;;;9.30;7.83;;;11.30;99.90;;;;;;4906855;29;20458;-83
2021/04/19 04:35:17;;;;;;;12.53;7.90;;;11.30;99.90;;;;;;4904749;29;20474;-82
2021/04/19 04:37:58;;;;;;;9.67;8.20;;;11.20;99.90;;;;;;4904498;29;20462;-82
2021/04/19 04:47:54;;;;;;;10.80;7.93;;;11.00;99.90;;;;;;4967177;28;20488;-82
2021/04/19 04:55:01;;;;;;;13.27;7.80;;;11.00;99.90;;;;;;4961321;28;20936;-80
2021/04/19 04:58:18;;;;;;;9.00;8.10;;;11.00;99.90;;;;;;4963017;28;20546;-82
2021/04/19 05:01:17;;;;;;;10.73;7.80;;;11.00;99.90;;;;;;4964730;28;20456;-82
2021/04/19 05:04:37;;;;;;;9.90;7.60;;;11.00;99.90;;;;;;4960413;28;20463;-80
2021/04/19 05:07:33;;;;;;;8.77;7.87;;;10.90;99.90;;;;;;4961693;28;20502;-81
2021/04/19 05:10:47;;;;;;;13.03;8.40;;;11.00;99.90;;;;;;4965546;28;20459;-81
2021/04/19 05:17:02;;;;;;;10.03;9.03;;;11.00;99.90;;;;;;4967812;28;20487;-83
2021/04/19 05:20:10;;;;;;;12.17;10.57;;;11.00;99.90;;;;;;4977119;28;20531;-81
2021/04/19 05:22:40;;;;;;;10.53;9.33;;;11.00;99.90;;;;;;4976839;28;20470;-79
2021/04/19 05:25:35;;;;;;;10.67;9.57;;;10.90;99.90;;;;;;4968635;28;20511;-82
2021/04/19 05:28:36;;;;;;;13.83;10.50;;;11.00;99.90;;;;;;4954418;28;20476;-81
2021/04/19 05:31:21;;;;;;;12.27;10.63;;;11.10;99.90;;;;;;4967939;28;20458;-80
2021/04/19 05:34:14;;;;;;;15.10;11.90;;;11.00;99.90;;;;;;4970547;28;20455;-82
2021/04/19 05:37:17;;;;;;;11.93;10.23;;;11.00;99.90;;;;;;4968741;28;20483;-80
2021/04/19 05:40:09;;;;;;;13.80;10.33;;;11.00;99.90;;;;;;4972808;28;20419;-80
2021/04/19 05:42:57;;;;;;;13.70;9.60;;;11.00;99.90;;;;;;4966853;28;20451;-79
2021/04/19 05:46:02;;;;;;;15.63;12.10;;;11.00;99.90;;;;;;4969806;28;20478;-81
2021/04/19 05:49:11;;;;;;;19.20;12.07;;;10.90;99.90;;;;;;4963090;28;20479;-81
2021/04/19 05:51:44;;;;;;;14.80;11.83;;;10.90;99.90;;;;;;4963301;28;20515;-81
2021/04/19 05:54:21;;;;;;;15.80;12.50;;;10.80;99.90;;;;;;4965462;28;20958;-80
2021/04/19 05:57:29;;;;;;;12.67;11.37;;;10.70;99.90;;;;;;4962338;28;20475;-82
2021/04/19 06:00:38;;;;;;;15.60;11.47;;;10.80;99.90;;;;;;4962997;28;20518;-79
2021/04/19 06:03:26;;;;;;;13.83;11.90;;;10.80;99.90;;;;;;4963811;28;20471;-80
2021/04/19 06:06:17;;;;;;;16.20;12.90;;;10.80;99.90;;;;;;4962322;28;20487;-81
2021/04/19 06:09:04;;;;;;;17.57;12.67;;;10.80;99.90;;;;;;4967199;28;20444;-78
2021/04/19 06:11:49;;;;;;;14.70;12.60;;;10.70;99.90;;;;;;4968453;28;20460;-82
2021/04/19 06:14:49;;;;;;;15.90;12.90;;;10.80;99.90;;;;;;4963929;28;20945;-79
2021/04/19 06:17:23;;;;;;;23.13;13.17;;;10.70;99.90;;;;;;4965357;28;20503;-80
2021/04/19 06:19:59;;;;;;;16.77;12.10;;;10.70;99.90;;;;;;4964385;28;20466;-79
2021/04/19 06:22:28;;;;;;;15.83;12.90;;;10.70;99.90;;;;;;4966395;28;21016;-79
2021/04/19 06:25:15;;;;;;;19.93;13.63;;;10.70;99.90;;;;;;4905635;29;21438;-83
2021/04/19 06:28:18;;;;;;;14.60;12.80;;;10.80;99.90;;;;;;4907227;29;20497;-82
2021/04/19 06:31:20;;;;;;;15.27;13.80;;;10.90;99.90;;;;;;4908124;29;20538;-83
2021/04/19 06:34:10;;;;;;;14.60;13.03;;;11.00;99.90;;;;;;4906488;29;20499;-83
2021/04/19 06:37:00;;;;;;;14.70;13.20;;;11.00;99.90;;;;;;4905326;29;20478;-79
2021/04/19 06:40:05;;;;;;;15.70;13.50;;;10.90;99.90;;;;;;4893484;29;20465;-80
2021/04/19 06:42:47;;;;;;;17.43;13.70;;;10.70;99.90;;;;;;4907891;29;20541;-80
2021/04/19 06:45:20;;;;;;;15.10;13.50;;;10.70;99.90;;;;;;4889511;29;20957;-83
2021/04/19 06:48:20;;;;;;;15.80;13.97;;;10.70;99.90;;;;;;4921416;29;20943;-80
2021/04/19 06:50:54;;;;;;;18.30;14.57;;;10.60;99.90;;;;;;4904180;29;20474;-80
2021/04/19 06:53:44;;;;;;;17.00;14.57;;;10.60;99.90;;;;;;4892191;29;20462;-81
2021/04/19 06:56:19;;;;;;;19.73;16.07;;;10.60;99.90;;;;;;4939739;28;20993;-81
2021/04/19 06:59:25;;;;;;;18.03;15.77;;;10.40;99.90;;;;;;4911015;29;20928;-82
2021/04/19 07:02:01;;;;;;;21.67;15.67;;;10.40;99.90;;;;;;4926947;29;20465;-81
2021/04/19 07:04:52;;;;;;;18.20;15.67;;;10.40;99.90;;;;;;4915415;29;20620;-83
2021/04/19 07:10:55;;;;;;;18.03;15.80;;;10.40;99.90;;;;;;4944923;28;20458;-81
2021/04/19 07:13:54;;;;;;;20.67;17.33;;;10.50;99.90;;;;;;4921979;29;20449;-80
2021/04/19 07:16:29;;;;;;;19.83;17.17;;;10.40;99.90;;;;;;4925052;29;20468;-79
2021/04/19 07:19:05;;;;;;;20.97;16.47;;;10.50;99.90;;;;;;4948007;28;20529;-81
2021/04/19 07:21:35;;;;;;;19.60;16.77;;;10.50;99.90;;;;;;4933351;29;20524;-80
2021/04/19 07:24:15;;;;;;;18.70;16.70;;;10.60;99.90;;;;;;4927027;29;20493;-80
2021/04/19 07:26:43;;;;;;;18.20;15.80;;;10.60;99.90;;;;;;4916417;29;20541;-81
2021/04/19 07:29:21;;;;;;;20.37;18.17;;;10.70;99.90;;;;;;4934329;28;20458;-82
2021/04/19 07:32:06;;;;;;;19.63;17.20;;;10.70;99.90;;;;;;4968549;28;20571;-82
2021/04/19 07:38:00;;;;;;;19.57;17.37;;;10.70;99.90;;;;;;4966280;28;20801;-80
2021/04/19 07:40:35;;;;;;;21.97;19.37;;;10.70;99.90;;;;;;4965974;28;20539;-82
2021/04/19 07:43:24;;;;;;;20.27;17.57;;;10.70;99.90;;;;;;4979941;28;20463;-83
2021/04/19 07:46:28;;;;;;;19.50;16.57;;;10.70;99.90;;;;;;4965462;28;20640;-82
2021/04/19 07:49:13;;;;;;;20.63;18.10;;;10.70;99.90;;;;;;4964479;28;20627;-82
2021/04/19 07:52:08;;;;;;;22.27;18.03;;;10.70;99.90;;;;;;4968530;28;20487;-82
2021/04/19 07:54:58;;;;;;;20.93;18.70;;;10.80;99.90;;;;;;4966904;28;20452;-82
2021/04/19 07:58:01;;;;;;;23.20;19.97;;;11.30;99.90;;;;;;4979307;28;20456;-80
2021/04/19 08:01:08;;;;;;;23.23;20.00;;;11.70;99.90;;;;;;4982102;28;20435;-80
2021/04/19 08:03:50;;;;;;;28.67;21.37;;;11.60;99.90;;;;;;4979748;28;20468;-80
2021/04/19 08:14:33;;;;;;;21.47;18.10;;;10.90;99.90;;;;;;4954108;29;21072;-80
2021/04/19 08:22:26;;;;;;;23.23;19.33;;;10.70;99.90;;;;;;4931474;29;20464;-81
2021/04/19 08:25:11;;;;;;;22.03;19.47;;;10.70;99.90;;;;;;4912551;29;20564;-80
2021/04/19 08:28:19;;;;;;;24.90;19.20;;;10.70;99.90;;;;;;4926708;29;20489;-79
2021/04/19 08:31:02;;;;;;;27.30;22.70;;;10.70;99.90;;;;;;4908479;29;20462;-82
2021/04/19 08:34:06;;;;;;;25.67;20.90;;;10.70;99.90;;;;;;4925951;29;20442;-83
2021/04/19 08:37:31;;;;;;;26.77;20.33;;;10.60;99.90;;;;;;4920737;28;20476;-81
2021/04/19 08:40:03;;;;;;;24.73;20.63;;;10.60;99.90;;;;;;4962203;28;20580;-79
2021/04/19 08:42:45;;;;;;;23.77;21.17;;;10.70;99.90;;;;;;4931005;28;21353;-80
2021/04/19 08:45:32;;;;;;;22.43;20.00;;;10.70;99.90;;;;;;4968103;28;20558;-83
2021/04/19 08:48:13;;;;;;;42.33;31.60;;;10.70;99.90;;;;;;4967687;28;20490;-83
2021/04/19 08:51:04;;;;;;;24.43;21.83;;;10.80;99.90;;;;;;4962486;28;20607;-81
2021/04/19 08:53:37;;;;;;;24.10;20.80;;;10.80;99.90;;;;;;4960050;28;21048;-80
2021/04/19 08:56:18;;;;;;;23.90;19.67;;;10.80;99.90;;;;;;4965516;28;20491;-80
2021/04/19 08:59:32;;;;;;;24.70;19.30;;;10.80;99.90;;;;;;4933498;29;20465;-81
2021/04/19 09:02:31;;;;;;;24.07;21.50;;;10.70;99.90;;;;;;4942275;28;20966;-80
2021/04/19 09:05:42;;;;;;;24.60;19.70;;;10.70;99.90;;;;;;4932407;28;20468;-80
2021/04/19 09:13:04;;;;;;;24.90;19.63;;;10.80;99.90;;;;;;4922594;29;20464;-81
2021/04/19 09:20:03;;;;;;;21.97;19.60;;;11.00;99.90;;;;;;4918985;29;21059;-82
2021/04/19 09:23:02;;;;;;;22.30;20.00;;;11.10;99.90;;;;;;4907700;29;20465;-83
2021/04/19 09:26:07;;;;;;;22.93;20.50;;;11.20;99.90;;;;;;4923106;29;21173;-82
2021/04/19 09:29:40;;;;;;;24.43;20.70;;;11.30;99.90;;;;;;4851393;29;20686;-80
2021/04/19 09:32:29;;;;;;;23.13;20.73;;;11.40;99.90;;;;;;4861973;29;20482;-81
2021/04/19 09:35:46;;;;;;;22.67;20.27;;;11.60;99.90;;;;;;4865252;29;20550;-82
2021/04/19 09:39:07;;;;;;;21.23;19.13;;;11.60;99.90;;;;;;4805623;29;20453;-79
2021/04/19 09:46:33;;;;;;;;;;;;;;;;;;;;;
2021/04/19 09:57:42;;;;;;;25.57;22.30;;;12.30;99.90;;;;;;4918496;28;20703;-82
2021/04/19 10:04:40;;;;;;;33.80;24.33;;;12.10;99.90;;;;;;4903266;29;21040;-82
2021/04/19 10:17:33;;;;;;;28.03;23.70;;;11.40;99.90;;;;;;4889441;29;20512;-79
2021/04/19 10:20:25;;;;;;;26.43;23.07;;;11.40;99.90;;;;;;4889480;29;20457;-79
2021/04/19 10:23:11;;;;;;;28.93;24.90;;;11.70;99.90;;;;;;4887085;29;20457;-79
2021/04/19 10:32:32;;;;;;;29.40;24.43;;;11.70;99.90;;;;;;4917467;29;20229;-82
2021/04/19 10:35:50;;;;;;;32.80;24.27;;;11.90;99.90;;;;;;4905602;28;20521;-82
2021/04/19 10:38:49;;;;;;;27.40;24.50;;;12.20;99.90;;;;;;4988275;28;20443;-81
2021/04/19 10:44:58;;;;;;;30.00;26.10;;;12.30;99.90;;;;;;4942221;28;20468;-81
2021/04/19 10:47:42;;;;;;;28.93;24.13;;;12.60;99.90;;;;;;4984819;28;20502;-83
2021/04/19 10:53:40;;;;;;;26.47;23.80;;;12.80;99.90;;;;;;4980306;28;20529;-84
2021/04/19 10:56:25;;;;;;;27.77;24.87;;;12.60;99.90;;;;;;5047659;23;20601;-82
2021/04/19 10:59:22;;;;;;;26.87;24.10;;;12.70;99.90;;;;;;5006874;28;20575;-82
2021/04/19 11:02:27;;;;;;;30.00;25.93;;;12.70;99.90;;;;;;5008661;28;20446;-82
2021/04/19 11:05:14;;;;;;;29.87;24.73;;;12.80;99.90;;;;;;5003925;28;20505;-81
2021/04/19 11:07:58;;;;;;;27.13;24.13;;;13.00;99.90;;;;;;5023146;28;21074;-80
2021/04/19 11:10:37;;;;;;;30.57;25.90;;;13.70;99.90;;;;;;5037336;28;20494;-80
2021/04/19 11:13:31;;;;;;;30.33;27.33;;;14.50;99.10;;;;;;5027805;28;20576;-83
2021/04/19 11:19:42;;;;;;;22.30;19.90;;;14.20;99.00;;;;;;5035540;28;20453;-81
2021/04/19 11:22:36;;;;;;;26.53;23.83;;;14.50;98.60;;;;;;5028997;28;20468;-81
2021/04/19 11:25:31;;;;;;;24.37;21.90;;;15.00;97.40;;;;;;5017808;28;20513;-82
2021/04/19 11:28:29;;;;;;;24.60;22.30;;;15.50;96.90;;;;;;5019720;28;20481;-84
2021/04/19 11:31:35;;;;;;;25.33;22.93;;;17.60;93.00;;;;;;5019842;28;20446;-82
2021/04/19 12:09:49;;;;;;;22.60;19.20;;;17.50;86.70;;;;;;3267013;23;20478;-84
2021/04/19 12:16:07;;;;;;;19.80;18.00;;;17.10;87.30;;;;;;5004198;28;20500;-83
2021/04/19 12:19:15;;;;;;;18.93;17.20;;;17.00;88.10;;;;;;5008538;28;20454;-84
2021/04/19 12:22:34;;;;;;;17.70;16.10;;;16.90;86.80;;;;;;5012050;28;20450;-83
2021/04/19 12:28:34;;;;;;;18.87;17.07;;;17.40;85.70;;;;;;5024673;28;20501;-82
2021/04/19 12:31:32;;;;;;;20.50;18.50;;;18.40;81.60;;;;;;5026594;28;20429;-81
2021/04/19 12:34:31;;;;;;;19.53;17.73;;;18.00;81.70;;;;;;5021619;28;20426;-81
2021/04/19 12:37:40;;;;;;;20.67;18.63;;;17.40;83.70;;;;;;5026141;28;20458;-81
2021/04/19 12:40:54;;;;;;;17.53;15.93;;;17.30;84.10;;;;;;5024044;28;20439;-80
2021/04/19 12:43:51;;;;;;;17.10;15.40;;;17.30;83.90;;;;;;5024105;28;20441;-80
2021/04/19 12:47:03;;;;;;;19.23;17.37;;;16.90;83.80;;;;;;5017209;28;20553;-81
2021/04/19 12:49:58;;;;;;;17.03;15.23;;;17.20;84.30;;;;;;4996410;28;20449;-82
2021/04/19 12:53:20;;;;;;;19.20;15.27;;;18.30;80.00;;;;;;5005222;28;20477;-82
2021/04/19 12:55:48;;;;;;;17.43;15.77;;;18.00;79.30;;;;;;4938137;28;20572;-82
2021/04/19 12:58:26;;;;;;;17.37;15.57;;;18.00;80.70;;;;;;4956937;28;20454;-82
2021/04/19 13:01:13;;;;;;;19.47;17.43;;;18.30;79.00;;;;;;5009557;28;20456;-80
2021/04/19 13:04:25;;;;;;;18.37;16.53;;;18.40;79.50;;;;;;5016439;28;20485;-82
2021/04/19 13:11:01;;;;;;;18.97;15.90;;;17.80;80.00;;;;;;4973768;28;20523;-81
2021/04/19 13:17:52;;;;;;;19.43;17.43;;;19.20;76.40;;;;;;4964439;28;20471;-81
2021/04/19 13:20:56;;;;;;;19.00;17.27;;;18.50;77.20;;;;;;4965047;28;21248;-82
2021/04/19 13:23:45;;;;;;;19.23;15.60;;;18.00;79.70;;;;;;4944902;28;20456;-82
2021/04/19 13:27:03;;;;;;;19.60;17.50;;;17.90;80.30;;;;;;4950069;28;20949;-82
2021/04/19 13:29:54;;;;;;;16.43;14.63;;;17.70;80.20;;;;;;4959733;28;21153;-83
2021/04/19 13:32:21;;;;;;;16.60;14.40;;;17.20;80.80;;;;;;4950674;28;20626;-83
2021/04/19 13:34:53;;;;;;;16.30;14.70;;;17.70;78.00;;;;;;4964416;28;20470;-82
2021/04/19 13:37:24;;;;;;;15.33;13.83;;;17.60;78.00;;;;;;4947978;28;20470;-80
2021/04/19 13:40:23;;;;;;;13.82;12.48;;;17.10;78.20;;;;;;4698241;28;10000976;-80
2021/04/19 13:42:51;;;;;;;18.00;13.70;;;16.80;79.70;;;;;;4958465;28;20692;-81
2021/04/19 13:45:21;;;;;;;24.90;15.97;;;16.50;80.70;;;;;;4943434;28;20594;-81
2021/04/19 13:48:02;;;;;;;15.93;14.43;;;16.70;82.00;;;;;;4989883;28;20512;-80
2021/04/19 13:50:28;;;;;;;19.77;17.77;;;16.70;83.00;;;;;;5001284;28;20454;-81
2021/04/19 13:52:58;;;;;;;20.20;18.10;;;17.20;82.20;;;;;;5004451;28;20462;-81
2021/04/19 13:55:24;;;;;;;23.63;20.27;;;17.20;82.60;;;;;;5004672;28;20462;-80
2021/04/19 13:57:56;;;;;;;20.80;16.50;;;17.00;82.20;;;;;;5003054;28;20454;-80
2021/04/19 14:00:27;;;;;;;22.50;20.10;;;16.80;82.20;;;;;;5004739;28;20513;-82
2021/04/19 14:03:11;;;;;;;24.33;21.57;;;16.60;84.00;;;;;;5008818;28;20456;-82
2021/04/19 14:05:48;;;;;;;33.17;29.63;;;16.50;84.20;;;;;;5011168;28;20500;-80
2021/04/19 14:08:18;;;;;;;22.47;19.30;;;16.30;85.60;;;;;;5014710;28;20474;-81
2021/04/19 14:11:43;;;;;;;20.83;18.63;;;16.00;87.40;;;;;;5029475;28;20540;-79
2021/04/19 14:14:50;;;;;;;21.20;19.00;;;15.80;88.20;;;;;;5026827;28;20565;-80
2021/04/19 14:17:27;;;;;;;20.70;17.87;;;15.80;89.20;;;;;;5002567;28;20532;-83
2021/04/19 14:19:57;;;;;;;20.13;18.23;;;15.80;88.40;;;;;;5002753;28;20454;-82
2021/04/19 14:22:26;;;;;;;19.40;17.50;;;15.80;88.50;;;;;;5004005;28;20733;-81
2021/04/19 14:24:56;;;;;;;20.57;17.00;;;15.90;88.60;;;;;;5003468;28;20526;-84
2021/04/19 14:27:28;;;;;;;22.37;20.10;;;16.00;88.10;;;;;;5001605;28;20486;-82
2021/04/19 14:29:55;;;;;;;24.27;21.23;;;16.30;87.50;;;;;;5003658;28;20470;-82
2021/04/19 14:32:25;;;;;;;24.37;21.17;;;16.70;85.90;;;;;;5001860;28;20451;-81
2021/04/19 14:34:58;;;;;;;22.10;19.80;;;16.80;85.40;;;;;;5002314;28;20478;-82
2021/04/19 14:37:28;;;;;;;24.13;19.80;;;16.70;85.60;;;;;;5006025;28;20466;-81
2021/04/19 14:39:54;;;;;;;23.57;20.27;;;16.50;86.10;;;;;;5007811;28;20467;-79
2021/04/19 14:42:21;;;;;;;24.43;20.37;;;16.30;87.30;;;;;;5005935;28;20470;-80
2021/04/19 14:45:08;;;;;;;22.20;19.93;;;16.30;88.10;;;;;;5005521;28;20462;-80
2021/04/19 14:47:43;;;;;;;25.83;20.30;;;16.10;88.60;;;;;;5006323;28;20474;-83
2021/04/19 14:50:14;;;;;;;21.13;18.93;;;16.00;89.70;;;;;;5013253;28;20442;-81
2021/04/19 14:52:46;;;;;;;21.53;19.17;;;16.00;89.30;;;;;;5016287;28;20467;-81
2021/04/19 14:55:17;;;;;;;20.30;18.20;;;16.00;88.80;;;;;;5011550;28;20474;-81
2021/04/19 14:57:52;;;;;;;19.60;17.60;;;16.40;87.80;;;;;;5008505;28;20461;-82
2021/04/19 15:00:29;;;;;;;21.40;18.27;;;17.00;85.10;;;;;;4659781;28;9999846;-82
2021/04/19 15:03:32;;;;;;;19.87;17.87;;;16.80;84.80;;;;;;4965053;28;20448;-80
2021/04/19 15:07:19;;;;;;;;;;;;;;;;;;;;;
2021/04/19 15:10:30;;;;;;;19.67;17.57;;;16.30;85.90;;;;;;4941821;28;20448;-80
2021/04/19 15:14:04;;;;;;;19.43;17.20;;;16.20;86.90;;;;;;4966556;28;20459;-80
2021/04/19 15:17:21;;;;;;;18.20;16.50;;;16.20;87.50;;;;;;4967837;28;20824;-84
2021/04/19 15:20:29;;;;;;;17.40;13.87;;;16.20;86.90;;;;;;4943229;28;20452;-83
2021/04/19 15:23:18;;;;;;;16.60;14.90;;;16.30;85.80;;;;;;4959514;28;20483;-82
2021/04/19 15:26:38;;;;;;;;;;;;;;;;;;;;;
2021/04/19 15:32:27;;;;;;;16.37;14.77;;;16.70;84.30;;;;;;5006809;28;20573;-78
2021/04/19 15:35:18;;;;;;;21.87;16.23;;;16.60;84.70;;;;;;5000151;28;20525;-82
2021/04/19 15:38:11;;;;;;;18.43;16.57;;;17.30;82.80;;;;;;4993035;28;20471;-79
2021/04/19 15:41:06;;;;;;;18.20;16.30;;;17.00;83.20;;;;;;4995912;28;20455;-80
2021/04/19 15:43:35;;;;;;;16.37;14.67;;;16.80;83.90;;;;;;4993966;28;20497;-79
2021/04/19 15:46:24;;;;;;;15.80;14.17;;;16.90;84.40;;;;;;4998491;28;21005;-79
2021/04/19 15:49:18;;;;;;;18.23;15.87;;;17.20;82.20;;;;;;5089784;22;20506;-82
2021/04/19 15:51:50;;;;;;;18.50;16.50;;;16.90;82.20;;;;;;5000748;28;20431;-78
2021/04/19 15:54:16;;;;;;;19.10;17.00;;;17.00;83.70;;;;;;5003377;28;20472;-80
2021/04/19 15:59:34;;;;;;;17.10;15.40;;;17.00;83.80;;;;;;5006714;28;20507;-83
2021/04/19 16:02:06;;;;;;;17.53;15.73;;;16.70;84.40;;;;;;5005643;28;20488;-82
2021/04/19 16:04:51;;;;;;;16.40;14.70;;;16.50;85.50;;;;;;5014198;28;20524;-79
2021/04/19 16:07:18;;;;;;;18.63;16.50;;;16.40;86.10;;;;;;5016819;28;20876;-82
2021/04/19 16:09:49;;;;;;;17.23;15.43;;;16.30;86.50;;;;;;5017386;28;20445;-81
2021/04/19 16:12:53;;;;;;;;;;;;;;;;;;;;;
2021/04/19 16:15:34;;;;;;;18.53;16.70;;;16.70;86.10;;;;;;5021011;28;20505;-81
2021/04/19 16:18:12;;;;;;;18.20;16.07;;;16.90;85.20;;;;;;5017767;28;20476;-80
2021/04/19 16:21:12;;;;;;;17.73;15.87;;;16.50;86.60;;;;;;5010908;28;20445;-82
2021/04/19 16:24:38;;;;;;;16.97;15.13;;;16.70;86.20;;;;;;5010286;28;20489;-81
2021/04/19 16:31:32;;;;;;;17.40;15.50;;;16.60;86.50;;;;;;4980944;28;20528;-82
2021/04/19 16:33:58;;;;;;;17.37;15.57;;;16.60;85.50;;;;;;4998267;28;20465;-79
2021/04/19 16:36:28;;;;;;;18.80;16.87;;;16.50;85.40;;;;;;5008200;28;20478;-82
2021/04/19 16:38:57;;;;;;;20.93;18.70;;;16.60;86.40;;;;;;5010141;28;20503;-81
2021/04/19 16:41:26;;;;;;;21.40;18.20;;;16.30;87.30;;;;;;5013658;28;20449;-81
2021/04/19 16:43:55;;;;;;;20.63;17.23;;;16.40;88.60;;;;;;5012405;28;20497;-81
2021/04/19 16:46:22;;;;;;;19.30;17.40;;;16.10;89.00;;;;;;5011870;28;21757;-82
2021/04/19 16:49:02;;;;;;;21.80;17.53;;;15.90;89.90;;;;;;5013484;28;20493;-81
2021/04/19 16:51:30;;;;;;;18.47;16.50;;;15.80;90.40;;;;;;5010186;28;20524;-84
2021/04/19 16:54:00;;;;;;;18.93;16.97;;;15.80;90.60;;;;;;5011162;28;20466;-80
2021/04/19 16:56:27;;;;;;;18.97;17.10;;;15.80;90.60;;;;;;5015023;28;20878;-82
2021/04/19 16:58:55;;;;;;;19.40;17.50;;;15.70;90.70;;;;;;5010757;28;20568;-80
2021/04/19 17:01:24;;;;;;;19.57;16.73;;;15.70;90.60;;;;;;5015982;28;20503;-83
2021/04/19 17:03:56;;;;;;;19.80;17.87;;;15.70;90.70;;;;;;5028289;28;20524;-80